sensor_id;sensor_type;location;lat;lon;timestamp;pressure;altitude;pressure_sealevel;temperature;humidity
80103;BME280;69865;47.648;19.030;2024-03-02T00:00:28;99920.91;;;8.07;100.00
80103;BME280;69865;47.648;19.030;2024-03-02T00:01:00;99913.88;;;8.08;100.00
80103;BME280;69865;47.648;19.030;2024-03-02T00:01:33;99916.72;;;8.04;100.00
80103;BME280;69865;47.648;19.030;2024-03-02T00:02:06;99915.09;;;8.03;100.00
80103;BME280;69865;47.648;19.030;2024-03-02T00:02:40;99915.31;;;8.00;100.00
80103;BME280;69865;47.648;19.030;2024-03-02T00:03:12;99905.94;;;7.98;100.00
80103;BME280;69865;47.648;19.030;2024-03-02T00:03:44;99906.31;;;7.93;100.00
80103;BME280;69865;47.648;19.030;2024-03-02T00:04:16;99907.25;;;7.92;100.00
80103;BME280;69865;47.648;19.030;2024-03-02T00:04:48;99910.84;;;7.91;100.00
80103;BME280;69865;47.648;19.030;2024-03-02T00:05:22;99912.66;;;7.91;100.00
80103;BME280;69865;47.648;19.030;2024-03-02T00:05:54;99911.91;;;7.89;100.00
80103;BME280;69865;47.648;19.030;2024-03-02T00:06:26;99909.44;;;7.87;100.00
80103;BME280;69865;47.648;19.030;2024-03-02T00:06:59;99916.47;;;7.87;100.00
80103;BME280;69865;47.648;19.030;2024-03-02T00:07:31;99909.69;;;7.84;100.00
80103;BME280;69865;47.648;19.030;2024-03-02T00:08:04;99914.47;;;7.79;100.00
80103;BME280;69865;47.648;19.030;2024-03-02T00:08:37;99917.81;;;7.81;100.00
80103;BME280;69865;47.648;19.030;2024-03-02T00:09:10;99909.34;;;7.78;100.00
80103;BME280;69865;47.648;19.030;2024-03-02T00:09:43;99912.94;;;7.77;100.00
80103;BME280;69865;47.648;19.030;2024-03-02T00:10:20;99907.94;;;7.74;100.00
80103;BME280;69865;47.648;19.030;2024-03-02T00:10:57;99911.50;;;7.73;100.00
80103;BME280;69865;47.648;19.030;2024-03-02T00:11:30;99918.56;;;7.72;100.00
80103;BME280;69865;47.648;19.030;2024-03-02T00:12:02;99910.94;;;7.69;100.00
80103;BME280;69865;47.648;19.030;2024-03-02T00:12:35;99920.59;;;7.69;100.00
80103;BME280;69865;47.648;19.030;2024-03-02T00:13:08;99915.47;;;7.67;100.00
80103;BME280;69865;47.648;19.030;2024-03-02T00:13:40;99920.00;;;7.65;100.00
80103;BME280;69865;47.648;19.030;2024-03-02T00:14:12;99920.00;;;7.65;100.00
80103;BME280;69865;47.648;19.030;2024-03-02T00:14:44;99915.75;;;7.64;100.00
80103;BME280;69865;47.648;19.030;2024-03-02T00:15:41;99911.44;;;7.63;100.00
80103;BME280;69865;47.648;19.030;2024-03-02T00:16:13;99918.59;;;7.61;100.00
80103;BME280;69865;47.648;19.030;2024-03-02T00:16:47;99919.41;;;7.62;100.00
80103;BME280;69865;47.648;19.030;2024-03-02T00:17:24;99918.59;;;7.61;100.00
80103;BME280;69865;47.648;19.030;2024-03-02T00:17:57;99922.19;;;7.60;100.00
80103;BME280;69865;47.648;19.030;2024-03-02T00:18:31;99916.69;;;7.63;100.00
80103;BME280;69865;47.648;19.030;2024-03-02T00:19:05;99913.22;;;7.63;100.00
80103;BME280;69865;47.648;19.030;2024-03-02T00:19:38;99918.47;;;7.63;100.00
80103;BME280;69865;47.648;19.030;2024-03-02T00:20:16;99920.16;;;7.64;100.00
80103;BME280;69865;47.648;19.030;2024-03-02T00:20:53;99909.66;;;7.64;100.00
80103;BME280;69865;47.648;19.030;2024-03-02T00:21:27;99914.91;;;7.64;100.00
80103;BME280;69865;47.648;19.030;2024-03-02T00:22:01;99920.97;;;7.64;100.00
80103;BME280;69865;47.648;19.030;2024-03-02T00:22:35;99922.75;;;7.64;100.00
80103;BME280;69865;47.648;19.030;2024-03-02T00:23:09;99915.97;;;7.61;100.00
80103;BME280;69865;47.648;19.030;2024-03-02T00:23:41;99914.06;;;7.63;100.00
80103;BME280;69865;47.648;19.030;2024-03-02T00:24:21;99916.69;;;7.63;100.00
80103;BME280;69865;47.648;19.030;2024-03-02T00:24:54;99915.03;;;7.62;100.00
80103;BME280;69865;47.648;19.030;2024-03-02T00:25:26;99915.84;;;7.63;100.00
80103;BME280;69865;47.648;19.030;2024-03-02T00:25:58;99919.31;;;7.63;100.00
80103;BME280;69865;47.648;19.030;2024-03-02T00:26:31;99909.78;;;7.62;100.00
80103;BME280;69865;47.648;19.030;2024-03-02T00:27:04;99915.84;;;7.63;100.00
80103;BME280;69865;47.648;19.030;2024-03-02T00:27:37;99913.94;;;7.65;100.00
80103;BME280;69865;47.648;19.030;2024-03-02T00:28:20;99909.41;;;7.67;100.00
80103;BME280;69865;47.648;19.030;2024-03-02T00:28:55;99916.31;;;7.68;100.00
80103;BME280;69865;47.648;19.030;2024-03-02T00:29:28;99907.88;;;7.64;100.00
80103;BME280;69865;47.648;19.030;2024-03-02T00:30:01;99907.16;;;7.62;100.00
80103;BME280;69865;47.648;19.030;2024-03-02T00:31:02;99907.16;;;7.62;100.00
80103;BME280;69865;47.648;19.030;2024-03-02T00:31:34;99907.16;;;7.62;100.00
80103;BME280;69865;47.648;19.030;2024-03-02T00:32:13;99908.81;;;7.63;100.00
80103;BME280;69865;47.648;19.030;2024-03-02T00:32:45;99904.28;;;7.65;100.00
80103;BME280;69865;47.648;19.030;2024-03-02T00:33:17;99909.66;;;7.64;100.00
80103;BME280;69865;47.648;19.030;2024-03-02T00:33:50;99907.88;;;7.64;100.00
80103;BME280;69865;47.648;19.030;2024-03-02T00:34:22;99908.00;;;7.63;100.00
80103;BME280;69865;47.648;19.030;2024-03-02T00:34:54;99902.75;;;7.63;100.00
80103;BME280;69865;47.648;19.030;2024-03-02T00:35:26;99903.69;;;7.62;100.00
80103;BME280;69865;47.648;19.030;2024-03-02T00:35:59;99898.09;;;7.66;100.00
80103;BME280;69865;47.648;19.030;2024-03-02T00:36:32;99911.19;;;7.66;100.00
80103;BME280;69865;47.648;19.030;2024-03-02T00:37:04;99902.50;;;7.66;100.00
80103;BME280;69865;47.648;19.030;2024-03-02T00:37:36;99910.34;;;7.66;100.00
80103;BME280;69865;47.648;19.030;2024-03-02T00:38:08;99911.31;;;7.65;100.00
80103;BME280;69865;47.648;19.030;2024-03-02T00:38:47;99904.41;;;7.64;100.00
80103;BME280;69865;47.648;19.030;2024-03-02T00:39:19;99908.47;;;7.68;100.00
80103;BME280;69865;47.648;19.030;2024-03-02T00:39:52;99905.94;;;7.66;100.00
80103;BME280;69865;47.648;19.030;2024-03-02T00:40:28;99904.41;;;7.64;100.00
80103;BME280;69865;47.648;19.030;2024-03-02T00:41:05;99904.41;;;7.64;100.00
80103;BME280;69865;47.648;19.030;2024-03-02T00:41:40;99909.78;;;7.62;100.00
80103;BME280;69865;47.648;19.030;2024-03-02T00:42:13;99906.31;;;7.62;100.00
80103;BME280;69865;47.648;19.030;2024-03-02T00:42:45;99906.31;;;7.62;100.00
80103;BME280;69865;47.648;19.030;2024-03-02T00:43:42;99908.34;;;7.58;100.00
80103;BME280;69865;47.648;19.030;2024-03-02T00:44:23;99903.22;;;7.56;100.00
80103;BME280;69865;47.648;19.030;2024-03-02T00:44:57;99903.22;;;7.56;100.00
80103;BME280;69865;47.648;19.030;2024-03-02T00:45:29;99904.44;;;7.52;100.00
80103;BME280;69865;47.648;19.030;2024-03-02T00:46:02;99899.19;;;7.52;100.00
80103;BME280;69865;47.648;19.030;2024-03-02T00:46:35;99900.88;;;7.53;100.00
80103;BME280;69865;47.648;19.030;2024-03-02T00:47:09;99903.63;;;7.52;100.00
80103;BME280;69865;47.648;19.030;2024-03-02T00:47:41;99909.69;;;7.52;100.00
80103;BME280;69865;47.648;19.030;2024-03-02T00:48:15;99908.97;;;7.50;100.00
80103;BME280;69865;47.648;19.030;2024-03-02T00:48:55;99906.63;;;7.47;100.00
80103;BME280;69865;47.648;19.030;2024-03-02T00:49:28;99912.06;;;7.44;100.00
80103;BME280;69865;47.648;19.030;2024-03-02T00:50:00;99907.81;;;7.43;100.00
80103;BME280;69865;47.648;19.030;2024-03-02T00:50:38;99910.44;;;7.43;100.00
80103;BME280;69865;47.648;19.030;2024-03-02T00:51:11;99911.28;;;7.44;100.00
80103;BME280;69865;47.648;19.030;2024-03-02T00:51:46;99917.47;;;7.43;100.00
80103;BME280;69865;47.648;19.030;2024-03-02T00:52:19;99917.31;;;7.44;100.00
80103;BME280;69865;47.648;19.030;2024-03-02T00:52:51;99914.94;;;7.41;100.00
80103;BME280;69865;47.648;19.030;2024-03-02T00:53:26;99910.56;;;7.42;100.00
80103;BME280;69865;47.648;19.030;2024-03-02T00:54:00;99912.34;;;7.41;100.00
80103;BME280;69865;47.648;19.030;2024-03-02T00:54:32;99904.63;;;7.40;100.00
80103;BME280;69865;47.648;19.030;2024-03-02T00:55:05;99907.25;;;7.40;100.00
80103;BME280;69865;47.648;19.030;2024-03-02T00:55:37;99912.47;;;7.40;100.00
80103;BME280;69865;47.648;19.030;2024-03-02T00:56:11;99907.09;;;7.41;100.00
80103;BME280;69865;47.648;19.030;2024-03-02T00:56:43;99908.66;;;7.44;100.00
80103;BME280;69865;47.648;19.030;2024-03-02T00:57:15;99910.56;;;7.42;100.00
80103;BME280;69865;47.648;19.030;2024-03-02T00:57:47;99899.38;;;7.40;100.00
80103;BME280;69865;47.648;19.030;2024-03-02T00:58:20;99905.56;;;7.39;100.00
80103;BME280;69865;47.648;19.030;2024-03-02T00:58:52;99905.94;;;7.34;100.00
80103;BME280;69865;47.648;19.030;2024-03-02T00:59:24;99910.22;;;7.35;100.00
80103;BME280;69865;47.648;19.030;2024-03-02T00:59:57;99904.41;;;7.32;100.00
80103;BME280;69865;47.648;19.030;2024-03-02T01:00:29;99909.38;;;7.35;100.00
80103;BME280;69865;47.648;19.030;2024-03-02T01:01:01;99911.91;;;7.36;100.00
80103;BME280;69865;47.648;19.030;2024-03-02T01:01:33;99917.00;;;7.38;100.00
80103;BME280;69865;47.648;19.030;2024-03-02T01:02:05;99917.00;;;7.38;100.00
80103;BME280;69865;47.648;19.030;2024-03-02T01:02:38;99917.72;;;7.40;100.00
80103;BME280;69865;47.648;19.030;2024-03-02T01:03:11;99916.03;;;7.39;100.00
80103;BME280;69865;47.648;19.030;2024-03-02T01:03:43;99920.19;;;7.41;100.00
80103;BME280;69865;47.648;19.030;2024-03-02T01:04:15;99917.56;;;7.41;100.00
80103;BME280;69865;47.648;19.030;2024-03-02T01:04:47;99920.19;;;7.41;100.00
80103;BME280;69865;47.648;19.030;2024-03-02T01:05:20;99917.81;;;7.38;100.00
80103;BME280;69865;47.648;19.030;2024-03-02T01:05:52;99916.16;;;7.37;100.00
80103;BME280;69865;47.648;19.030;2024-03-02T01:06:24;99914.38;;;7.38;100.00
80103;BME280;69865;47.648;19.030;2024-03-02T01:06:56;99915.09;;;7.40;100.00
80103;BME280;69865;47.648;19.030;2024-03-02T01:07:28;99911.06;;;7.36;100.00
80103;BME280;69865;47.648;19.030;2024-03-02T01:08:00;99914.38;;;7.38;100.00
80103;BME280;69865;47.648;19.030;2024-03-02T01:08:33;99914.50;;;7.36;100.00
80103;BME280;69865;47.648;19.030;2024-03-02T01:09:05;99912.69;;;7.37;100.00
80103;BME280;69865;47.648;19.030;2024-03-02T01:09:37;99914.25;;;7.39;100.00
80103;BME280;69865;47.648;19.030;2024-03-02T01:10:10;99920.19;;;7.41;100.00
80103;BME280;69865;47.648;19.030;2024-03-02T01:10:42;99914.84;;;7.43;100.00
80103;BME280;69865;47.648;19.030;2024-03-02T01:11:14;99917.56;;;7.41;100.00
80103;BME280;69865;47.648;19.030;2024-03-02T01:11:46;99918.31;;;7.43;100.00
80103;BME280;69865;47.648;19.030;2024-03-02T01:12:18;99911.38;;;7.42;100.00
80103;BME280;69865;47.648;19.030;2024-03-02T01:12:50;99921.63;;;7.45;100.00
80103;BME280;69865;47.648;19.030;2024-03-02T01:13:22;99919.13;;;7.44;100.00
80103;BME280;69865;47.648;19.030;2024-03-02T01:13:54;99917.22;;;7.46;100.00
80103;BME280;69865;47.648;19.030;2024-03-02T01:14:26;99917.78;;;7.49;100.00
80103;BME280;69865;47.648;19.030;2024-03-02T01:14:58;99921.25;;;7.50;100.00
80103;BME280;69865;47.648;19.030;2024-03-02T01:15:30;99923.75;;;7.51;100.00
80103;BME280;69865;47.648;19.030;2024-03-02T01:16:03;99921.81;;;7.53;100.00
80103;BME280;69865;47.648;19.030;2024-03-02T01:16:35;99922.66;;;7.54;100.00
80103;BME280;69865;47.648;19.030;2024-03-02T01:17:07;99928.63;;;7.56;100.00
80103;BME280;69865;47.648;19.030;2024-03-02T01:17:41;99918.72;;;7.60;100.00
80103;BME280;69865;47.648;19.030;2024-03-02T01:18:13;99920.38;;;7.61;100.00
80103;BME280;69865;47.648;19.030;2024-03-02T01:18:45;99923.72;;;7.63;100.00
80103;BME280;69865;47.648;19.030;2024-03-02T01:19:18;99915.84;;;7.63;100.00
80103;BME280;69865;47.648;19.030;2024-03-02T01:19:50;99911.44;;;7.63;100.00
80103;BME280;69865;47.648;19.030;2024-03-02T01:20:22;99920.16;;;7.64;100.00
80103;BME280;69865;47.648;19.030;2024-03-02T01:20:55;99923.59;;;7.64;100.00
80103;BME280;69865;47.648;19.030;2024-03-02T01:21:27;99926.09;;;7.66;100.00
80103;BME280;69865;47.648;19.030;2024-03-02T01:21:59;99920.97;;;7.64;100.00
80103;BME280;69865;47.648;19.030;2024-03-02T01:22:31;99915.59;;;7.66;100.00
80103;BME280;69865;47.648;19.030;2024-03-02T01:23:03;99913.81;;;7.66;100.00
80103;BME280;69865;47.648;19.030;2024-03-02T01:23:35;99915.75;;;7.64;100.00
80103;BME280;69865;47.648;19.030;2024-03-02T01:24:07;99909.88;;;7.61;100.00
80103;BME280;69865;47.648;19.030;2024-03-02T01:24:39;99915.97;;;7.61;100.00
80103;BME280;69865;47.648;19.030;2024-03-02T01:25:11;99914.31;;;7.60;100.00
80103;BME280;69865;47.648;19.030;2024-03-02T01:25:43;99907.25;;;7.61;100.00
80103;BME280;69865;47.648;19.030;2024-03-02T01:26:15;99901.22;;;7.60;100.00
80103;BME280;69865;47.648;19.030;2024-03-02T01:26:47;99907.41;;;7.59;100.00
80103;BME280;69865;47.648;19.030;2024-03-02T01:27:20;99903.84;;;7.60;100.00
80103;BME280;69865;47.648;19.030;2024-03-02T01:27:52;99908.94;;;7.62;100.00
80103;BME280;69865;47.648;19.030;2024-03-02T01:28:24;99898.00;;;7.56;100.00
80103;BME280;69865;47.648;19.030;2024-03-02T01:28:56;99898.72;;;7.59;100.00
80103;BME280;69865;47.648;19.030;2024-03-02T01:29:28;99902.16;;;7.59;100.00
80103;BME280;69865;47.648;19.030;2024-03-02T01:30:00;99903.00;;;7.60;100.00
80103;BME280;69865;47.648;19.030;2024-03-02T01:30:32;99899.56;;;7.59;100.00
80103;BME280;69865;47.648;19.030;2024-03-02T01:31:04;99893.47;;;7.59;100.00
80103;BME280;69865;47.648;19.030;2024-03-02T01:31:37;99897.75;;;7.60;100.00
80103;BME280;69865;47.648;19.030;2024-03-02T01:32:09;99890.13;;;7.56;100.00
80103;BME280;69865;47.648;19.030;2024-03-02T01:32:42;99891.81;;;7.57;100.00
80103;BME280;69865;47.648;19.030;2024-03-02T01:33:14;99888.81;;;7.62;100.00
80103;BME280;69865;47.648;19.030;2024-03-02T01:33:46;99890.34;;;7.65;100.00
80103;BME280;69865;47.648;19.030;2024-03-02T01:34:18;99882.47;;;7.65;100.00
80103;BME280;69865;47.648;19.030;2024-03-02T01:34:50;99888.19;;;7.70;100.00
80103;BME280;69865;47.648;19.030;2024-03-02T01:35:22;99884.72;;;7.69;100.00
80103;BME280;69865;47.648;19.030;2024-03-02T01:35:55;99887.50;;;7.68;100.00
80103;BME280;69865;47.648;19.030;2024-03-02T01:36:27;99885.25;;;7.63;100.00
80103;BME280;69865;47.648;19.030;2024-03-02T01:37:09;99887.88;;;7.63;100.00
80103;BME280;69865;47.648;19.030;2024-03-02T01:37:41;99886.78;;;7.66;100.00
80103;BME280;69865;47.648;19.030;2024-03-02T01:38:13;99884.16;;;7.66;100.00
80103;BME280;69865;47.648;19.030;2024-03-02T01:38:45;99885.94;;;7.65;100.00
80103;BME280;69865;47.648;19.030;2024-03-02T01:39:17;99882.38;;;7.66;100.00
80103;BME280;69865;47.648;19.030;2024-03-02T01:39:49;99884.03;;;7.67;100.00
80103;BME280;69865;47.648;19.030;2024-03-02T01:40:21;99882.94;;;7.70;100.00
80103;BME280;69865;47.648;19.030;2024-03-02T01:40:53;99886.28;;;7.72;100.00
80103;BME280;69865;47.648;19.030;2024-03-02T01:41:25;99887.91;;;7.73;100.00
80103;BME280;69865;47.648;19.030;2024-03-02T01:41:57;99874.81;;;7.73;100.00
80103;BME280;69865;47.648;19.030;2024-03-02T01:42:29;99879.00;;;7.75;100.00
80103;BME280;69865;47.648;19.030;2024-03-02T01:43:02;99881.03;;;7.72;100.00
80103;BME280;69865;47.648;19.030;2024-03-02T01:43:34;99875.91;;;7.70;100.00
80103;BME280;69865;47.648;19.030;2024-03-02T01:44:09;99880.06;;;7.73;100.00
80103;BME280;69865;47.648;19.030;2024-03-02T01:44:41;99873.03;;;7.73;100.00
80103;BME280;69865;47.648;19.030;2024-03-02T01:45:13;99871.25;;;7.74;100.00
80103;BME280;69865;47.648;19.030;2024-03-02T01:45:45;99871.41;;;7.72;100.00
80103;BME280;69865;47.648;19.030;2024-03-02T01:46:18;99870.41;;;7.73;100.00
80103;BME280;69865;47.648;19.030;2024-03-02T01:46:50;99869.47;;;7.74;100.00
80103;BME280;69865;47.648;19.030;2024-03-02T01:47:22;99865.16;;;7.73;100.00
80103;BME280;69865;47.648;19.030;2024-03-02T01:47:54;99869.47;;;7.74;100.00
80103;BME280;69865;47.648;19.030;2024-03-02T01:48:26;99863.28;;;7.75;100.00
80103;BME280;69865;47.648;19.030;2024-03-02T01:48:58;99866.56;;;7.77;100.00
80103;BME280;69865;47.648;19.030;2024-03-02T01:49:30;99871.97;;;7.76;100.00
80103;BME280;69865;47.648;19.030;2024-03-02T01:50:02;99867.41;;;7.78;100.00
80103;BME280;69865;47.648;19.030;2024-03-02T01:50:35;99867.41;;;7.78;100.00
80103;BME280;69865;47.648;19.030;2024-03-02T01:51:07;99873.59;;;7.77;100.00
80103;BME280;69865;47.648;19.030;2024-03-02T01:51:40;99875.53;;;7.75;100.00
80103;BME280;69865;47.648;19.030;2024-03-02T01:52:14;99872.09;;;7.74;100.00
80103;BME280;69865;47.648;19.030;2024-03-02T01:52:46;99872.34;;;7.71;100.00
80103;BME280;69865;47.648;19.030;2024-03-02T01:53:18;99874.13;;;7.71;100.00
80103;BME280;69865;47.648;19.030;2024-03-02T01:53:50;99875.66;;;7.73;100.00
80103;BME280;69865;47.648;19.030;2024-03-02T01:54:22;99873.88;;;7.74;100.00
80103;BME280;69865;47.648;19.030;2024-03-02T01:54:55;99868.63;;;7.74;100.00
80103;BME280;69865;47.648;19.030;2024-03-02T01:55:27;99861.59;;;7.74;100.00
80103;BME280;69865;47.648;19.030;2024-03-02T01:55:59;99864.09;;;7.76;100.00
80103;BME280;69865;47.648;19.030;2024-03-02T01:56:31;99866.56;;;7.77;100.00
80103;BME280;69865;47.648;19.030;2024-03-02T01:57:03;99858.59;;;7.79;100.00
80103;BME280;69865;47.648;19.030;2024-03-02T01:57:36;99865.25;;;7.83;100.00
80103;BME280;69865;47.648;19.030;2024-03-02T01:58:08;99856.44;;;7.84;100.00
80103;BME280;69865;47.648;19.030;2024-03-02T01:58:41;99851.31;;;7.82;100.00
80103;BME280;69865;47.648;19.030;2024-03-02T01:59:13;99855.47;;;7.85;100.00
80103;BME280;69865;47.648;19.030;2024-03-02T01:59:45;99859.75;;;7.86;100.00
80103;BME280;69865;47.648;19.030;2024-03-02T02:00:18;99853.81;;;7.84;100.00
80103;BME280;69865;47.648;19.030;2024-03-02T02:00:51;99852.97;;;7.83;100.00
80103;BME280;69865;47.648;19.030;2024-03-02T02:01:23;99861.78;;;7.82;100.00
80103;BME280;69865;47.648;19.030;2024-03-02T02:01:55;99856.28;;;7.85;100.00
80103;BME280;69865;47.648;19.030;2024-03-02T02:02:27;99860.59;;;7.86;100.00
80103;BME280;69865;47.648;19.030;2024-03-02T02:02:59;99848.16;;;7.88;100.00
80103;BME280;69865;47.648;19.030;2024-03-02T02:03:32;99861.16;;;7.90;100.00
80103;BME280;69865;47.648;19.030;2024-03-02T02:04:04;99861.03;;;7.91;100.00
80103;BME280;69865;47.648;19.030;2024-03-02T02:04:36;99862.69;;;7.92;100.00
80103;BME280;69865;47.648;19.030;2024-03-02T02:05:08;99866.88;;;7.95;100.00
80103;BME280;69865;47.648;19.030;2024-03-02T02:05:42;99868.66;;;7.94;100.00
80103;BME280;69865;47.648;19.030;2024-03-02T02:06:14;99867.69;;;7.95;100.00
80103;BME280;69865;47.648;19.030;2024-03-02T02:06:46;99862.31;;;7.97;100.00
80103;BME280;69865;47.648;19.030;2024-03-02T02:07:20;99865.75;;;7.97;100.00
80103;BME280;69865;47.648;19.030;2024-03-02T02:07:52;99866.47;;;7.99;100.00
80103;BME280;69865;47.648;19.030;2024-03-02T02:08:24;99874.34;;;7.99;100.00
80103;BME280;69865;47.648;19.030;2024-03-02T02:08:56;99870.75;;;8.00;100.00
80103;BME280;69865;47.648;19.030;2024-03-02T02:09:28;99864.81;;;7.98;100.00
80103;BME280;69865;47.648;19.030;2024-03-02T02:10:00;99863.88;;;7.99;100.00
80103;BME280;69865;47.648;19.030;2024-03-02T02:10:32;99871.72;;;7.99;100.00
80103;BME280;69865;47.648;19.030;2024-03-02T02:11:04;99865.50;;;8.00;100.00
80103;BME280;69865;47.648;19.030;2024-03-02T02:11:36;99864.69;;;8.00;100.00
80103;BME280;69865;47.648;19.030;2024-03-02T02:12:09;99866.47;;;7.99;100.00
80103;BME280;69865;47.648;19.030;2024-03-02T02:12:41;99877.53;;;8.03;100.00
80103;BME280;69865;47.648;19.030;2024-03-02T02:13:14;99873.25;;;8.02;100.00
80103;BME280;69865;47.648;19.030;2024-03-02T02:13:46;99876.72;;;8.02;100.00
80103;BME280;69865;47.648;19.030;2024-03-02T02:14:18;99874.91;;;8.03;100.00
80103;BME280;69865;47.648;19.030;2024-03-02T02:14:50;99879.22;;;8.04;100.00
80103;BME280;69865;47.648;19.030;2024-03-02T02:15:26;99877.41;;;8.04;100.00
80103;BME280;69865;47.648;19.030;2024-03-02T02:16:04;99884.31;;;8.06;100.00
80103;BME280;69865;47.648;19.030;2024-03-02T02:16:37;99881.69;;;8.06;100.00
80103;BME280;69865;47.648;19.030;2024-03-02T02:17:09;99881.56;;;8.07;100.00
80103;BME280;69865;47.648;19.030;2024-03-02T02:17:41;99885.88;;;8.08;100.00
80103;BME280;69865;47.648;19.030;2024-03-02T02:18:13;99883.94;;;8.10;100.00
80103;BME280;69865;47.648;19.030;2024-03-02T02:18:45;99883.94;;;8.10;100.00
80103;BME280;69865;47.648;19.030;2024-03-02T02:19:17;99887.38;;;8.11;100.00
80103;BME280;69865;47.648;19.030;2024-03-02T02:19:49;99883.25;;;8.08;100.00
80103;BME280;69865;47.648;19.030;2024-03-02T02:20:21;99889.19;;;8.10;100.00
80103;BME280;69865;47.648;19.030;2024-03-02T02:20:53;99890.00;;;8.11;100.00
80103;BME280;69865;47.648;19.030;2024-03-02T02:21:27;99890.00;;;8.11;100.00
80103;BME280;69865;47.648;19.030;2024-03-02T02:21:59;99888.22;;;8.11;100.00
80103;BME280;69865;47.648;19.030;2024-03-02T02:22:31;99882.00;;;8.12;100.00
80103;BME280;69865;47.648;19.030;2024-03-02T02:23:04;99888.91;;;8.13;100.00
80103;BME280;69865;47.648;19.030;2024-03-02T02:23:36;99887.38;;;8.11;100.00
80103;BME280;69865;47.648;19.030;2024-03-02T02:24:08;99882.84;;;8.13;100.00
80103;BME280;69865;47.648;19.030;2024-03-02T02:24:41;99889.88;;;8.12;100.00
80103;BME280;69865;47.648;19.030;2024-03-02T02:25:14;99887.13;;;8.14;100.00
80103;BME280;69865;47.648;19.030;2024-03-02T02:25:46;99887.13;;;8.14;100.00
80103;BME280;69865;47.648;19.030;2024-03-02T02:26:18;99893.47;;;8.11;100.00
80103;BME280;69865;47.648;19.030;2024-03-02T02:26:50;99892.50;;;8.12;100.00
80103;BME280;69865;47.648;19.030;2024-03-02T02:27:22;99889.88;;;8.12;100.00
80103;BME280;69865;47.648;19.030;2024-03-02T02:27:55;99895.09;;;8.12;100.00
80103;BME280;69865;47.648;19.030;2024-03-02T02:28:27;99891.53;;;8.13;100.00
80103;BME280;69865;47.648;19.030;2024-03-02T02:28:59;99889.88;;;8.12;100.00
80103;BME280;69865;47.648;19.030;2024-03-02T02:29:31;99889.75;;;8.14;100.00
80103;BME280;69865;47.648;19.030;2024-03-02T02:30:04;99890.59;;;8.14;100.00
80103;BME280;69865;47.648;19.030;2024-03-02T02:30:36;99890.31;;;8.17;100.00
80103;BME280;69865;47.648;19.030;2024-03-02T02:31:08;99888.78;;;8.15;100.00
80103;BME280;69865;47.648;19.030;2024-03-02T02:31:41;99889.63;;;8.15;100.00
80103;BME280;69865;47.648;19.030;2024-03-02T02:32:14;99895.72;;;8.16;100.00
80103;BME280;69865;47.648;19.030;2024-03-02T02:32:46;99893.91;;;8.16;100.00
80103;BME280;69865;47.648;19.030;2024-03-02T02:33:18;99896.66;;;8.15;100.00
80103;BME280;69865;47.648;19.030;2024-03-02T02:33:50;99895.94;;;8.13;100.00
80103;BME280;69865;47.648;19.030;2024-03-02T02:34:22;99895.09;;;8.12;100.00
80103;BME280;69865;47.648;19.030;2024-03-02T02:34:54;99887.25;;;8.12;100.00
80103;BME280;69865;47.648;19.030;2024-03-02T02:35:26;99904.66;;;8.13;100.00
80103;BME280;69865;47.648;19.030;2024-03-02T02:35:58;99900.25;;;8.14;100.00
80103;BME280;69865;47.648;19.030;2024-03-02T02:36:32;99903.81;;;8.13;100.00
80103;BME280;69865;47.648;19.030;2024-03-02T02:37:05;99894.31;;;8.12;100.00
80103;BME280;69865;47.648;19.030;2024-03-02T02:37:37;99899.41;;;8.13;100.00
80103;BME280;69865;47.648;19.030;2024-03-02T02:38:09;99902.03;;;8.13;100.00
80103;BME280;69865;47.648;19.030;2024-03-02T02:38:44;99892.63;;;8.11;100.00
80103;BME280;69865;47.648;19.030;2024-03-02T02:39:21;99898.56;;;8.13;100.00
80103;BME280;69865;47.648;19.030;2024-03-02T02:39:53;99901.19;;;8.13;100.00
80103;BME280;69865;47.648;19.030;2024-03-02T02:40:26;99896.09;;;8.11;100.00
80103;BME280;69865;47.648;19.030;2024-03-02T02:40:58;99894.31;;;8.12;100.00
80103;BME280;69865;47.648;19.030;2024-03-02T02:41:30;99897.03;;;8.10;100.00
80103;BME280;69865;47.648;19.030;2024-03-02T02:42:02;99897.88;;;8.11;100.00
80103;BME280;69865;47.648;19.030;2024-03-02T02:42:34;99896.09;;;8.11;100.00
80103;BME280;69865;47.648;19.030;2024-03-02T02:43:06;99897.72;;;8.12;100.00
80103;BME280;69865;47.648;19.030;2024-03-02T02:43:39;99885.88;;;8.08;100.00
80103;BME280;69865;47.648;19.030;2024-03-02T02:44:11;99893.00;;;8.06;100.00
80103;BME280;69865;47.648;19.030;2024-03-02T02:44:43;99901.72;;;8.07;100.00
80103;BME280;69865;47.648;19.030;2024-03-02T02:45:15;99893.97;;;8.05;100.00
80103;BME280;69865;47.648;19.030;2024-03-02T02:45:47;99894.94;;;8.04;100.00
80103;BME280;69865;47.648;19.030;2024-03-02T02:46:20;99897.69;;;8.02;100.00
80103;BME280;69865;47.648;19.030;2024-03-02T02:46:52;99895.31;;;7.99;100.00
80103;BME280;69865;47.648;19.030;2024-03-02T02:47:24;99895.56;;;7.96;100.00
80103;BME280;69865;47.648;19.030;2024-03-02T02:47:57;99892.13;;;7.96;100.00
80103;BME280;69865;47.648;19.030;2024-03-02T02:48:29;99895.56;;;7.96;100.00
80103;BME280;69865;47.648;19.030;2024-03-02T02:49:01;99895.69;;;7.95;100.00
80103;BME280;69865;47.648;19.030;2024-03-02T02:49:33;99892.94;;;7.96;100.00
80103;BME280;69865;47.648;19.030;2024-03-02T02:50:07;99895.44;;;7.98;100.00
80103;BME280;69865;47.648;19.030;2024-03-02T02:50:39;99888.66;;;7.95;100.00
80103;BME280;69865;47.648;19.030;2024-03-02T02:51:13;99899.28;;;7.94;100.00
80103;BME280;69865;47.648;19.030;2024-03-02T02:51:46;99892.34;;;7.93;100.00
80103;BME280;69865;47.648;19.030;2024-03-02T02:52:18;99894.88;;;7.94;100.00
80103;BME280;69865;47.648;19.030;2024-03-02T02:52:50;99898.31;;;7.95;100.00